sensor_id;sensor_type;location;lat;lon;timestamp;P1;durP1;ratioP1;P2;durP2;ratioP2
1004;SDS011;491;53.480;10.174;2022-12-08T00:02:01;15.93;;;9.03;;
1004;SDS011;491;53.480;10.174;2022-12-08T00:04:27;17.07;;;10.73;;
1004;SDS011;491;53.480;10.174;2022-12-08T00:06:52;13.83;;;8.37;;
1004;SDS011;491;53.480;10.174;2022-12-08T00:09:38;14.47;;;8.07;;
1004;SDS011;491;53.480;10.174;2022-12-08T00:12:06;19.20;;;9.93;;
1004;SDS011;491;53.480;10.174;2022-12-08T00:14:38;13.77;;;7.93;;
1004;SDS011;491;53.480;10.174;2022-12-08T00:17:05;16.00;;;7.50;;
1004;SDS011;491;53.480;10.174;2022-12-08T00:19:31;14.40;;;7.63;;
1004;SDS011;491;53.480;10.174;2022-12-08T00:21:57;14.80;;;8.63;;
1004;SDS011;491;53.480;10.174;2022-12-08T00:24:31;12.70;;;8.17;;
1004;SDS011;491;53.480;10.174;2022-12-08T00:26:58;13.40;;;6.57;;
1004;SDS011;491;53.480;10.174;2022-12-08T00:29:25;21.07;;;9.93;;
1004;SDS011;491;53.480;10.174;2022-12-08T00:31:50;15.20;;;9.37;;
1004;SDS011;491;53.480;10.174;2022-12-08T00:34:16;13.40;;;8.60;;
1004;SDS011;491;53.480;10.174;2022-12-08T00:36:42;15.60;;;9.30;;
1004;SDS011;491;53.480;10.174;2022-12-08T00:39:08;12.53;;;6.93;;
1004;SDS011;491;53.480;10.174;2022-12-08T00:41:34;12.00;;;7.07;;
1004;SDS011;491;53.480;10.174;2022-12-08T00:44:18;11.43;;;7.07;;
1004;SDS011;491;53.480;10.174;2022-12-08T00:46:44;15.03;;;9.47;;
1004;SDS011;491;53.480;10.174;2022-12-08T00:49:11;11.97;;;9.10;;
1004;SDS011;491;53.480;10.174;2022-12-08T00:51:46;13.90;;;9.13;;
1004;SDS011;491;53.480;10.174;2022-12-08T00:54:40;9.10;;;6.37;;
1004;SDS011;491;53.480;10.174;2022-12-08T00:57:11;12.20;;;7.30;;
1004;SDS011;491;53.480;10.174;2022-12-08T00:59:36;11.50;;;8.47;;
1004;SDS011;491;53.480;10.174;2022-12-08T01:02:02;11.10;;;7.30;;
1004;SDS011;491;53.480;10.174;2022-12-08T01:04:27;13.07;;;8.53;;
1004;SDS011;491;53.480;10.174;2022-12-08T01:06:53;16.27;;;9.40;;
1004;SDS011;491;53.480;10.174;2022-12-08T01:09:18;15.83;;;9.30;;
1004;SDS011;491;53.480;10.174;2022-12-08T01:11:44;10.03;;;6.93;;
1004;SDS011;491;53.480;10.174;2022-12-08T01:14:11;12.57;;;8.50;;
1004;SDS011;491;53.480;10.174;2022-12-08T01:16:36;12.90;;;7.93;;
1004;SDS011;491;53.480;10.174;2022-12-08T01:19:04;12.03;;;7.63;;
1004;SDS011;491;53.480;10.174;2022-12-08T01:21:29;15.43;;;9.53;;
1004;SDS011;491;53.480;10.174;2022-12-08T01:23:55;14.93;;;8.57;;
1004;SDS011;491;53.480;10.174;2022-12-08T01:26:23;11.10;;;8.67;;
1004;SDS011;491;53.480;10.174;2022-12-08T01:28:48;13.70;;;7.90;;
1004;SDS011;491;53.480;10.174;2022-12-08T01:31:16;15.57;;;8.37;;
1004;SDS011;491;53.480;10.174;2022-12-08T01:33:43;12.07;;;7.93;;
1004;SDS011;491;53.480;10.174;2022-12-08T01:36:19;12.27;;;8.93;;
1004;SDS011;491;53.480;10.174;2022-12-08T01:38:49;13.57;;;8.37;;
1004;SDS011;491;53.480;10.174;2022-12-08T01:41:17;12.93;;;7.93;;
1004;SDS011;491;53.480;10.174;2022-12-08T01:43:55;15.97;;;9.13;;
1004;SDS011;491;53.480;10.174;2022-12-08T01:46:26;9.40;;;6.90;;
1004;SDS011;491;53.480;10.174;2022-12-08T01:48:54;12.50;;;7.80;;
1004;SDS011;491;53.480;10.174;2022-12-08T01:51:42;14.50;;;8.80;;
1004;SDS011;491;53.480;10.174;2022-12-08T01:54:12;12.97;;;8.50;;
1004;SDS011;491;53.480;10.174;2022-12-08T01:56:49;18.47;;;9.60;;
1004;SDS011;491;53.480;10.174;2022-12-08T01:59:22;11.43;;;8.37;;
1004;SDS011;491;53.480;10.174;2022-12-08T02:01:49;13.33;;;8.77;;
1004;SDS011;491;53.480;10.174;2022-12-08T02:04:15;18.57;;;10.47;;
1004;SDS011;491;53.480;10.174;2022-12-08T02:06:42;15.40;;;8.97;;
1004;SDS011;491;53.480;10.174;2022-12-08T02:09:08;13.10;;;9.10;;
1004;SDS011;491;53.480;10.174;2022-12-08T02:11:34;13.13;;;8.40;;
1004;SDS011;491;53.480;10.174;2022-12-08T02:14:00;11.00;;;7.57;;
1004;SDS011;491;53.480;10.174;2022-12-08T02:27:11;12.77;;;7.37;;
1004;SDS011;491;53.480;10.174;2022-12-08T02:33:00;9.47;;;7.40;;
1004;SDS011;491;53.480;10.174;2022-12-08T02:36:10;11.93;;;7.50;;
1004;SDS011;491;53.480;10.174;2022-12-08T02:38:59;12.47;;;6.93;;
1004;SDS011;491;53.480;10.174;2022-12-08T02:41:33;15.63;;;7.30;;
1004;SDS011;491;53.480;10.174;2022-12-08T02:44:17;9.47;;;6.83;;
1004;SDS011;491;53.480;10.174;2022-12-08T02:47:07;9.97;;;6.47;;
1004;SDS011;491;53.480;10.174;2022-12-08T02:49:43;10.90;;;7.00;;
1004;SDS011;491;53.480;10.174;2022-12-08T02:54:42;10.43;;;7.10;;
1004;SDS011;491;53.480;10.174;2022-12-08T03:02:20;8.87;;;7.93;;
1004;SDS011;491;53.480;10.174;2022-12-08T03:07:42;11.10;;;8.27;;
1004;SDS011;491;53.480;10.174;2022-12-08T03:13:36;13.17;;;8.47;;
1004;SDS011;491;53.480;10.174;2022-12-08T03:16:13;12.00;;;7.37;;
1004;SDS011;491;53.480;10.174;2022-12-08T03:18:46;13.77;;;7.90;;
1004;SDS011;491;53.480;10.174;2022-12-08T03:21:15;9.63;;;6.50;;
1004;SDS011;491;53.480;10.174;2022-12-08T03:23:43;9.70;;;6.07;;
1004;SDS011;491;53.480;10.174;2022-12-08T03:26:27;7.20;;;4.37;;
1004;SDS011;491;53.480;10.174;2022-12-08T03:28:58;9.20;;;6.10;;
1004;SDS011;491;53.480;10.174;2022-12-08T03:31:24;11.27;;;6.47;;
1004;SDS011;491;53.480;10.174;2022-12-08T03:33:53;11.70;;;7.40;;
1004;SDS011;491;53.480;10.174;2022-12-08T03:36:20;8.00;;;4.77;;
1004;SDS011;491;53.480;10.174;2022-12-08T03:38:49;11.30;;;5.50;;
1004;SDS011;491;53.480;10.174;2022-12-08T03:41:16;8.80;;;4.87;;
1004;SDS011;491;53.480;10.174;2022-12-08T03:43:49;6.47;;;4.27;;
1004;SDS011;491;53.480;10.174;2022-12-08T03:46:17;9.30;;;4.50;;
1004;SDS011;491;53.480;10.174;2022-12-08T03:48:45;8.73;;;5.20;;
1004;SDS011;491;53.480;10.174;2022-12-08T03:51:10;6.37;;;3.40;;
1004;SDS011;491;53.480;10.174;2022-12-08T03:53:36;7.17;;;4.70;;
1004;SDS011;491;53.480;10.174;2022-12-08T03:58:43;5.67;;;3.60;;
1004;SDS011;491;53.480;10.174;2022-12-08T04:01:08;5.03;;;3.67;;
1004;SDS011;491;53.480;10.174;2022-12-08T04:03:34;11.93;;;4.67;;
1004;SDS011;491;53.480;10.174;2022-12-08T04:06:00;4.50;;;3.47;;
1004;SDS011;491;53.480;10.174;2022-12-08T04:08:25;5.93;;;3.20;;
1004;SDS011;491;53.480;10.174;2022-12-08T04:10:51;4.77;;;2.57;;
1004;SDS011;491;53.480;10.174;2022-12-08T04:13:18;5.50;;;3.20;;
1004;SDS011;491;53.480;10.174;2022-12-08T04:15:44;3.33;;;2.23;;
1004;SDS011;491;53.480;10.174;2022-12-08T04:18:10;5.47;;;3.50;;
1004;SDS011;491;53.480;10.174;2022-12-08T04:20:40;5.73;;;3.53;;
1004;SDS011;491;53.480;10.174;2022-12-08T04:23:09;4.60;;;3.00;;
1004;SDS011;491;53.480;10.174;2022-12-08T04:28:58;4.37;;;2.33;;
1004;SDS011;491;53.480;10.174;2022-12-08T04:31:26;2.80;;;1.77;;
1004;SDS011;491;53.480;10.174;2022-12-08T04:34:34;4.23;;;1.70;;
1004;SDS011;491;53.480;10.174;2022-12-08T04:36:58;2.60;;;1.77;;
1004;SDS011;491;53.480;10.174;2022-12-08T04:39:24;3.73;;;2.00;;
1004;SDS011;491;53.480;10.174;2022-12-08T04:41:49;3.23;;;2.43;;
1004;SDS011;491;53.480;10.174;2022-12-08T04:44:15;4.13;;;2.23;;
1004;SDS011;491;53.480;10.174;2022-12-08T04:46:40;3.43;;;1.50;;
1004;SDS011;491;53.480;10.174;2022-12-08T04:49:06;2.77;;;2.13;;
1004;SDS011;491;53.480;10.174;2022-12-08T04:51:31;2.50;;;1.97;;
1004;SDS011;491;53.480;10.174;2022-12-08T04:53:57;1.67;;;1.37;;
1004;SDS011;491;53.480;10.174;2022-12-08T04:56:22;3.37;;;1.37;;
1004;SDS011;491;53.480;10.174;2022-12-08T04:58:48;1.80;;;1.03;;
1004;SDS011;491;53.480;10.174;2022-12-08T05:01:13;2.00;;;0.83;;
1004;SDS011;491;53.480;10.174;2022-12-08T05:03:39;2.70;;;1.87;;
1004;SDS011;491;53.480;10.174;2022-12-08T05:06:04;1.87;;;1.30;;
1004;SDS011;491;53.480;10.174;2022-12-08T05:08:30;2.63;;;1.80;;
1004;SDS011;491;53.480;10.174;2022-12-08T05:11:03;4.23;;;1.70;;
1004;SDS011;491;53.480;10.174;2022-12-08T05:13:35;2.23;;;1.40;;
1004;SDS011;491;53.480;10.174;2022-12-08T05:16:02;4.20;;;2.17;;
1004;SDS011;491;53.480;10.174;2022-12-08T05:18:31;4.20;;;1.93;;
1004;SDS011;491;53.480;10.174;2022-12-08T05:20:57;2.80;;;1.23;;
1004;SDS011;491;53.480;10.174;2022-12-08T05:23:23;2.47;;;2.07;;
1004;SDS011;491;53.480;10.174;2022-12-08T05:25:49;2.80;;;1.90;;
1004;SDS011;491;53.480;10.174;2022-12-08T05:28:14;3.87;;;3.10;;
1004;SDS011;491;53.480;10.174;2022-12-08T05:30:40;3.90;;;2.27;;
1004;SDS011;491;53.480;10.174;2022-12-08T05:33:05;3.03;;;2.10;;
1004;SDS011;491;53.480;10.174;2022-12-08T05:35:31;3.33;;;1.60;;
1004;SDS011;491;53.480;10.174;2022-12-08T05:37:57;3.23;;;2.20;;
1004;SDS011;491;53.480;10.174;2022-12-08T05:40:22;4.17;;;1.83;;
1004;SDS011;491;53.480;10.174;2022-12-08T05:42:54;6.60;;;2.60;;
1004;SDS011;491;53.480;10.174;2022-12-08T05:45:19;2.83;;;1.60;;
1004;SDS011;491;53.480;10.174;2022-12-08T05:47:48;3.90;;;2.30;;
1004;SDS011;491;53.480;10.174;2022-12-08T05:50:20;2.80;;;1.60;;
1004;SDS011;491;53.480;10.174;2022-12-08T05:52:45;2.10;;;1.37;;
1004;SDS011;491;53.480;10.174;2022-12-08T05:55:11;3.30;;;1.80;;
1004;SDS011;491;53.480;10.174;2022-12-08T05:57:42;2.40;;;1.80;;
1004;SDS011;491;53.480;10.174;2022-12-08T06:00:08;2.20;;;1.77;;
1004;SDS011;491;53.480;10.174;2022-12-08T06:02:41;2.93;;;2.20;;
1004;SDS011;491;53.480;10.174;2022-12-08T06:05:07;2.93;;;1.47;;
1004;SDS011;491;53.480;10.174;2022-12-08T06:07:36;3.00;;;2.17;;
1004;SDS011;491;53.480;10.174;2022-12-08T06:10:05;2.37;;;2.00;;
1004;SDS011;491;53.480;10.174;2022-12-08T06:12:31;2.23;;;1.50;;
1004;SDS011;491;53.480;10.174;2022-12-08T06:14:57;3.00;;;1.40;;
1004;SDS011;491;53.480;10.174;2022-12-08T06:17:22;2.07;;;1.27;;
1004;SDS011;491;53.480;10.174;2022-12-08T06:19:48;1.93;;;0.90;;
1004;SDS011;491;53.480;10.174;2022-12-08T06:22:13;2.77;;;1.10;;
1004;SDS011;491;53.480;10.174;2022-12-08T06:24:39;1.43;;;1.00;;
1004;SDS011;491;53.480;10.174;2022-12-08T06:27:05;1.17;;;0.40;;
1004;SDS011;491;53.480;10.174;2022-12-08T06:29:30;1.57;;;0.73;;
1004;SDS011;491;53.480;10.174;2022-12-08T06:31:56;1.77;;;0.90;;
1004;SDS011;491;53.480;10.174;2022-12-08T06:34:22;1.83;;;0.97;;
1004;SDS011;491;53.480;10.174;2022-12-08T06:36:47;1.10;;;0.90;;
1004;SDS011;491;53.480;10.174;2022-12-08T06:39:16;1.00;;;0.53;;
1004;SDS011;491;53.480;10.174;2022-12-08T06:41:44;1.60;;;0.80;;
1004;SDS011;491;53.480;10.174;2022-12-08T06:44:32;1.80;;;0.50;;
1004;SDS011;491;53.480;10.174;2022-12-08T06:46:57;1.97;;;0.90;;
1004;SDS011;491;53.480;10.174;2022-12-08T06:49:23;4.00;;;1.70;;
1004;SDS011;491;53.480;10.174;2022-12-08T06:51:48;2.70;;;1.30;;
1004;SDS011;491;53.480;10.174;2022-12-08T06:54:14;2.17;;;1.30;;
1004;SDS011;491;53.480;10.174;2022-12-08T06:56:43;2.80;;;1.77;;
1004;SDS011;491;53.480;10.174;2022-12-08T06:59:08;1.50;;;1.07;;
1004;SDS011;491;53.480;10.174;2022-12-08T07:01:34;1.60;;;0.63;;
1004;SDS011;491;53.480;10.174;2022-12-08T07:03:59;3.30;;;1.60;;
1004;SDS011;491;53.480;10.174;2022-12-08T07:06:25;2.73;;;1.30;;
1004;SDS011;491;53.480;10.174;2022-12-08T07:08:51;2.40;;;1.73;;
1004;SDS011;491;53.480;10.174;2022-12-08T07:11:16;2.03;;;1.50;;
1004;SDS011;491;53.480;10.174;2022-12-08T07:13:42;2.90;;;2.00;;
1004;SDS011;491;53.480;10.174;2022-12-08T07:16:08;2.37;;;1.43;;
1004;SDS011;491;53.480;10.174;2022-12-08T07:18:36;3.07;;;1.70;;
1004;SDS011;491;53.480;10.174;2022-12-08T07:21:03;3.80;;;2.40;;
1004;SDS011;491;53.480;10.174;2022-12-08T07:23:34;3.10;;;1.60;;
1004;SDS011;491;53.480;10.174;2022-12-08T07:26:01;4.43;;;2.13;;
1004;SDS011;491;53.480;10.174;2022-12-08T07:28:31;3.97;;;2.70;;
1004;SDS011;491;53.480;10.174;2022-12-08T07:30:58;2.83;;;2.10;;
1004;SDS011;491;53.480;10.174;2022-12-08T07:33:24;2.90;;;2.40;;
1004;SDS011;491;53.480;10.174;2022-12-08T07:35:57;4.27;;;3.03;;
1004;SDS011;491;53.480;10.174;2022-12-08T07:38:27;2.70;;;1.80;;
1004;SDS011;491;53.480;10.174;2022-12-08T07:40:52;3.13;;;1.73;;
1004;SDS011;491;53.480;10.174;2022-12-08T07:43:18;3.27;;;2.30;;
1004;SDS011;491;53.480;10.174;2022-12-08T07:45:44;5.43;;;2.23;;
1004;SDS011;491;53.480;10.174;2022-12-08T07:48:10;3.07;;;2.17;;
1004;SDS011;491;53.480;10.174;2022-12-08T07:50:36;3.47;;;1.70;;
1004;SDS011;491;53.480;10.174;2022-12-08T07:53:02;4.83;;;2.70;;
1004;SDS011;491;53.480;10.174;2022-12-08T07:55:28;4.40;;;3.13;;
1004;SDS011;491;53.480;10.174;2022-12-08T07:57:53;4.27;;;3.47;;
1004;SDS011;491;53.480;10.174;2022-12-08T08:00:19;3.20;;;1.40;;
1004;SDS011;491;53.480;10.174;2022-12-08T08:02:45;3.93;;;3.03;;
1004;SDS011;491;53.480;10.174;2022-12-08T08:05:10;4.03;;;2.60;;
1004;SDS011;491;53.480;10.174;2022-12-08T08:07:37;5.67;;;2.80;;
1004;SDS011;491;53.480;10.174;2022-12-08T08:10:04;8.50;;;3.73;;
1004;SDS011;491;53.480;10.174;2022-12-08T08:12:30;6.37;;;3.97;;
1004;SDS011;491;53.480;10.174;2022-12-08T08:14:56;6.13;;;3.20;;
1004;SDS011;491;53.480;10.174;2022-12-08T08:17:22;6.73;;;3.60;;
1004;SDS011;491;53.480;10.174;2022-12-08T08:19:48;4.10;;;2.47;;
1004;SDS011;491;53.480;10.174;2022-12-08T08:22:13;6.10;;;3.40;;
1004;SDS011;491;53.480;10.174;2022-12-08T08:24:39;5.47;;;3.93;;
1004;SDS011;491;53.480;10.174;2022-12-08T08:27:04;7.03;;;4.20;;
1004;SDS011;491;53.480;10.174;2022-12-08T08:29:30;4.33;;;2.97;;
1004;SDS011;491;53.480;10.174;2022-12-08T08:31:55;7.87;;;4.03;;
1004;SDS011;491;53.480;10.174;2022-12-08T08:40:14;5.30;;;3.53;;
1004;SDS011;491;53.480;10.174;2022-12-08T08:43:03;4.43;;;4.03;;
1004;SDS011;491;53.480;10.174;2022-12-08T08:45:32;5.97;;;3.93;;
1004;SDS011;491;53.480;10.174;2022-12-08T08:47:58;5.57;;;4.47;;
1004;SDS011;491;53.480;10.174;2022-12-08T08:50:24;7.30;;;4.57;;
1004;SDS011;491;53.480;10.174;2022-12-08T08:52:50;7.03;;;4.87;;
1004;SDS011;491;53.480;10.174;2022-12-08T08:55:15;6.10;;;3.93;;
1004;SDS011;491;53.480;10.174;2022-12-08T08:57:41;4.43;;;3.83;;
1004;SDS011;491;53.480;10.174;2022-12-08T09:00:07;5.13;;;4.30;;
1004;SDS011;491;53.480;10.174;2022-12-08T09:02:36;6.37;;;3.90;;
1004;SDS011;491;53.480;10.174;2022-12-08T09:05:02;7.27;;;4.70;;
1004;SDS011;491;53.480;10.174;2022-12-08T09:07:28;6.40;;;5.33;;
1004;SDS011;491;53.480;10.174;2022-12-08T09:09:54;7.30;;;5.53;;
1004;SDS011;491;53.480;10.174;2022-12-08T09:12:20;8.07;;;5.33;;
1004;SDS011;491;53.480;10.174;2022-12-08T09:14:46;7.33;;;5.97;;
1004;SDS011;491;53.480;10.174;2022-12-08T09:17:12;8.70;;;5.97;;
1004;SDS011;491;53.480;10.174;2022-12-08T09:19:38;7.77;;;5.10;;
1004;SDS011;491;53.480;10.174;2022-12-08T09:22:04;6.97;;;4.93;;
1004;SDS011;491;53.480;10.174;2022-12-08T09:24:29;8.90;;;5.40;;
1004;SDS011;491;53.480;10.174;2022-12-08T09:26:55;6.90;;;4.60;;
1004;SDS011;491;53.480;10.174;2022-12-08T09:29:21;6.70;;;4.47;;
1004;SDS011;491;53.480;10.174;2022-12-08T09:31:46;9.33;;;5.60;;
1004;SDS011;491;53.480;10.174;2022-12-08T09:34:12;8.83;;;6.70;;
1004;SDS011;491;53.480;10.174;2022-12-08T09:36:38;9.17;;;6.43;;
1004;SDS011;491;53.480;10.174;2022-12-08T09:39:04;10.87;;;6.90;;
1004;SDS011;491;53.480;10.174;2022-12-08T09:41:36;10.50;;;6.60;;
1004;SDS011;491;53.480;10.174;2022-12-08T09:46:57;9.40;;;7.10;;
1004;SDS011;491;53.480;10.174;2022-12-08T09:49:27;8.27;;;5.70;;
1004;SDS011;491;53.480;10.174;2022-12-08T09:52:02;8.87;;;5.33;;
1004;SDS011;491;53.480;10.174;2022-12-08T09:54:33;7.27;;;4.83;;
1004;SDS011;491;53.480;10.174;2022-12-08T09:57:00;8.60;;;5.33;;
1004;SDS011;491;53.480;10.174;2022-12-08T09:59:30;8.53;;;5.87;;
1004;SDS011;491;53.480;10.174;2022-12-08T10:01:58;9.23;;;5.20;;
1004;SDS011;491;53.480;10.174;2022-12-08T10:09:47;4.83;;;3.23;;
1004;SDS011;491;53.480;10.174;2022-12-08T10:12:31;6.83;;;4.80;;
1004;SDS011;491;53.480;10.174;2022-12-08T10:15:17;5.10;;;3.43;;
1004;SDS011;491;53.480;10.174;2022-12-08T10:20:57;2.30;;;1.03;;
1004;SDS011;491;53.480;10.174;2022-12-08T10:23:38;1.60;;;1.43;;
1004;SDS011;491;53.480;10.174;2022-12-08T10:26:10;2.20;;;1.00;;
1004;SDS011;491;53.480;10.174;2022-12-08T10:28:38;2.60;;;1.23;;
1004;SDS011;491;53.480;10.174;2022-12-08T10:31:04;2.70;;;1.47;;
1004;SDS011;491;53.480;10.174;2022-12-08T10:33:30;1.80;;;0.97;;
1004;SDS011;491;53.480;10.174;2022-12-08T10:35:57;3.07;;;2.57;;
1004;SDS011;491;53.480;10.174;2022-12-08T10:38:31;5.80;;;2.63;;
1004;SDS011;491;53.480;10.174;2022-12-08T10:41:05;5.50;;;2.57;;
1004;SDS011;491;53.480;10.174;2022-12-08T10:43:38;4.97;;;2.77;;
1004;SDS011;491;53.480;10.174;2022-12-08T10:46:11;6.80;;;2.80;;
1004;SDS011;491;53.480;10.174;2022-12-08T10:48:54;8.00;;;3.37;;
1004;SDS011;491;53.480;10.174;2022-12-08T10:51:41;5.20;;;3.67;;
1004;SDS011;491;53.480;10.174;2022-12-08T10:54:27;5.70;;;2.70;;
1004;SDS011;491;53.480;10.174;2022-12-08T10:59:43;5.27;;;2.77;;
1004;SDS011;491;53.480;10.174;2022-12-08T11:02:09;4.80;;;3.37;;
1004;SDS011;491;53.480;10.174;2022-12-08T11:04:42;4.53;;;2.93;;
1004;SDS011;491;53.480;10.174;2022-12-08T11:07:08;5.17;;;3.17;;
1004;SDS011;491;53.480;10.174;2022-12-08T11:09:41;3.03;;;2.40;;
1004;SDS011;491;53.480;10.174;2022-12-08T11:12:12;3.87;;;2.10;;
1004;SDS011;491;53.480;10.174;2022-12-08T11:17:09;3.10;;;1.40;;
1004;SDS011;491;53.480;10.174;2022-12-08T11:19:39;2.40;;;1.30;;
1004;SDS011;491;53.480;10.174;2022-12-08T11:22:32;1.80;;;1.30;;
1004;SDS011;491;53.480;10.174;2022-12-08T11:25:10;2.10;;;1.20;;
1004;SDS011;491;53.480;10.174;2022-12-08T11:28:06;2.30;;;0.80;;
1004;SDS011;491;53.480;10.174;2022-12-08T11:30:35;1.00;;;0.90;;
1004;SDS011;491;53.480;10.174;2022-12-08T11:35:44;1.03;;;0.80;;
1004;SDS011;491;53.480;10.174;2022-12-08T11:38:25;2.57;;;0.83;;
1004;SDS011;491;53.480;10.174;2022-12-08T11:40:53;1.60;;;0.90;;
1004;SDS011;491;53.480;10.174;2022-12-08T11:46:04;2.90;;;1.23;;
1004;SDS011;491;53.480;10.174;2022-12-08T11:48:51;2.30;;;1.13;;
1004;SDS011;491;53.480;10.174;2022-12-08T11:56:48;2.10;;;0.73;;
1004;SDS011;491;53.480;10.174;2022-12-08T11:59:18;1.70;;;0.73;;
1004;SDS011;491;53.480;10.174;2022-12-08T12:01:50;1.40;;;0.60;;
1004;SDS011;491;53.480;10.174;2022-12-08T12:04:18;1.70;;;0.77;;
1004;SDS011;491;53.480;10.174;2022-12-08T12:10:16;0.80;;;0.40;;
1004;SDS011;491;53.480;10.174;2022-12-08T12:20:55;0.87;;;0.60;;
1004;SDS011;491;53.480;10.174;2022-12-08T12:23:43;0.70;;;0.40;;
1004;SDS011;491;53.480;10.174;2022-12-08T12:26:21;1.00;;;0.43;;
1004;SDS011;491;53.480;10.174;2022-12-08T12:31:25;1.47;;;0.60;;
1004;SDS011;491;53.480;10.174;2022-12-08T12:34:07;4.43;;;0.87;;
1004;SDS011;491;53.480;10.174;2022-12-08T12:36:56;0.87;;;0.40;;
1004;SDS011;491;53.480;10.174;2022-12-08T12:53:45;1.10;;;0.57;;
1004;SDS011;491;53.480;10.174;2022-12-08T12:55:53;2.00;;;1.10;;
1004;SDS011;491;53.480;10.174;2022-12-08T13:03:39;1.60;;;0.60;;
1004;SDS011;491;53.480;10.174;2022-12-08T13:06:12;2.90;;;1.57;;
1004;SDS011;491;53.480;10.174;2022-12-08T13:08:40;1.63;;;0.60;;
1004;SDS011;491;53.480;10.174;2022-12-08T13:11:18;1.97;;;0.90;;
1004;SDS011;491;53.480;10.174;2022-12-08T13:13:59;1.43;;;0.93;;
1004;SDS011;491;53.480;10.174;2022-12-08T13:16:30;3.40;;;0.70;;
1004;SDS011;491;53.480;10.174;2022-12-08T13:18:58;1.53;;;0.80;;
1004;SDS011;491;53.480;10.174;2022-12-08T13:21:32;2.00;;;0.80;;
1004;SDS011;491;53.480;10.174;2022-12-08T13:26:42;2.63;;;1.03;;
1004;SDS011;491;53.480;10.174;2022-12-08T13:29:21;1.97;;;0.90;;
1004;SDS011;491;53.480;10.174;2022-12-08T13:31:49;1.73;;;0.97;;
1004;SDS011;491;53.480;10.174;2022-12-08T13:44:58;4.17;;;1.70;;
1004;SDS011;491;53.480;10.174;2022-12-08T13:47:41;3.20;;;1.80;;
1004;SDS011;491;53.480;10.174;2022-12-08T13:50:14;6.83;;;1.97;;
1004;SDS011;491;53.480;10.174;2022-12-08T13:55:45;5.03;;;2.37;;
1004;SDS011;491;53.480;10.174;2022-12-08T13:58:17;3.43;;;2.23;;
1004;SDS011;491;53.480;10.174;2022-12-08T14:00:52;2.67;;;1.73;;
1004;SDS011;491;53.480;10.174;2022-12-08T14:03:18;3.53;;;2.30;;
1004;SDS011;491;53.480;10.174;2022-12-08T14:05:44;3.70;;;2.00;;
1004;SDS011;491;53.480;10.174;2022-12-08T14:08:28;3.30;;;2.23;;
1004;SDS011;491;53.480;10.174;2022-12-08T14:10:57;4.43;;;3.07;;
1004;SDS011;491;53.480;10.174;2022-12-08T14:13:28;3.80;;;2.57;;
1004;SDS011;491;53.480;10.174;2022-12-08T14:15:55;3.80;;;2.90;;
1004;SDS011;491;53.480;10.174;2022-12-08T14:18:23;4.40;;;2.63;;
1004;SDS011;491;53.480;10.174;2022-12-08T14:21:03;4.67;;;2.47;;
1004;SDS011;491;53.480;10.174;2022-12-08T14:23:34;5.07;;;1.73;;
1004;SDS011;491;53.480;10.174;2022-12-08T14:26:00;4.83;;;2.40;;
1004;SDS011;491;53.480;10.174;2022-12-08T14:28:27;3.33;;;1.90;;
1004;SDS011;491;53.480;10.174;2022-12-08T14:30:54;4.00;;;3.17;;
1004;SDS011;491;53.480;10.174;2022-12-08T14:33:20;3.70;;;1.63;;
1004;SDS011;491;53.480;10.174;2022-12-08T14:35:49;4.10;;;1.97;;
1004;SDS011;491;53.480;10.174;2022-12-08T14:38:17;2.80;;;2.50;;
1004;SDS011;491;53.480;10.174;2022-12-08T14:40:46;3.67;;;2.97;;
1004;SDS011;491;53.480;10.174;2022-12-08T14:43:32;9.50;;;3.20;;
1004;SDS011;491;53.480;10.174;2022-12-08T14:46:00;5.07;;;2.73;;
1004;SDS011;491;53.480;10.174;2022-12-08T14:54:13;3.23;;;2.03;;
1004;SDS011;491;53.480;10.174;2022-12-08T15:01:47;6.07;;;3.50;;
1004;SDS011;491;53.480;10.174;2022-12-08T15:04:23;4.17;;;2.87;;
1004;SDS011;491;53.480;10.174;2022-12-08T15:06:51;5.40;;;2.70;;
1004;SDS011;491;53.480;10.174;2022-12-08T15:09:27;4.90;;;3.03;;
1004;SDS011;491;53.480;10.174;2022-12-08T15:12:02;4.90;;;3.37;;
1004;SDS011;491;53.480;10.174;2022-12-08T15:14:56;5.00;;;3.47;;
1004;SDS011;491;53.480;10.174;2022-12-08T15:17:44;4.70;;;2.93;;
1004;SDS011;491;53.480;10.174;2022-12-08T15:22:57;10.30;;;4.03;;
1004;SDS011;491;53.480;10.174;2022-12-08T15:25:23;5.70;;;3.73;;
1004;SDS011;491;53.480;10.174;2022-12-08T15:27:49;3.33;;;1.63;;
1004;SDS011;491;53.480;10.174;2022-12-08T15:30:17;4.97;;;2.47;;
1004;SDS011;491;53.480;10.174;2022-12-08T15:32:43;4.50;;;2.53;;
1004;SDS011;491;53.480;10.174;2022-12-08T15:35:12;4.37;;;2.13;;
1004;SDS011;491;53.480;10.174;2022-12-08T15:37:39;6.30;;;3.07;;
1004;SDS011;491;53.480;10.174;2022-12-08T15:40:05;3.93;;;2.90;;
1004;SDS011;491;53.480;10.174;2022-12-08T15:42:31;3.50;;;2.33;;
1004;SDS011;491;53.480;10.174;2022-12-08T15:44:57;3.77;;;2.47;;
1004;SDS011;491;53.480;10.174;2022-12-08T15:47:23;4.43;;;3.23;;
1004;SDS011;491;53.480;10.174;2022-12-08T15:49:50;5.50;;;3.60;;
1004;SDS011;491;53.480;10.174;2022-12-08T15:52:18;5.00;;;3.83;;
1004;SDS011;491;53.480;10.174;2022-12-08T15:54:45;5.73;;;4.00;;
1004;SDS011;491;53.480;10.174;2022-12-08T15:57:17;3.97;;;2.73;;
1004;SDS011;491;53.480;10.174;2022-12-08T15:59:48;8.57;;;5.67;;
1004;SDS011;491;53.480;10.174;2022-12-08T16:02:15;8.33;;;5.80;;
1004;SDS011;491;53.480;10.174;2022-12-08T16:04:41;9.17;;;5.53;;
1004;SDS011;491;53.480;10.174;2022-12-08T16:07:11;5.13;;;4.30;;
1004;SDS011;491;53.480;10.174;2022-12-08T16:09:48;5.43;;;4.50;;
1004;SDS011;491;53.480;10.174;2022-12-08T16:12:15;5.87;;;3.97;;
1004;SDS011;491;53.480;10.174;2022-12-08T16:15:05;5.70;;;3.83;;
1004;SDS011;491;53.480;10.174;2022-12-08T16:17:31;6.23;;;3.83;;
1004;SDS011;491;53.480;10.174;2022-12-08T16:19:57;5.40;;;4.20;;
1004;SDS011;491;53.480;10.174;2022-12-08T16:22:25;6.50;;;4.87;;
1004;SDS011;491;53.480;10.174;2022-12-08T16:24:53;6.37;;;5.30;;
1004;SDS011;491;53.480;10.174;2022-12-08T16:27:20;7.93;;;5.00;;
1004;SDS011;491;53.480;10.174;2022-12-08T16:29:48;6.17;;;4.03;;
1004;SDS011;491;53.480;10.174;2022-12-08T16:32:14;6.63;;;4.50;;
1004;SDS011;491;53.480;10.174;2022-12-08T16:34:40;4.93;;;3.47;;
1004;SDS011;491;53.480;10.174;2022-12-08T16:37:07;6.03;;;3.87;;
1004;SDS011;491;53.480;10.174;2022-12-08T16:39:39;5.30;;;3.40;;
1004;SDS011;491;53.480;10.174;2022-12-08T16:42:04;4.73;;;3.40;;
1004;SDS011;491;53.480;10.174;2022-12-08T16:44:48;9.70;;;3.83;;
1004;SDS011;491;53.480;10.174;2022-12-08T16:47:14;6.17;;;4.10;;
1004;SDS011;491;53.480;10.174;2022-12-08T16:49:39;4.10;;;3.37;;
1004;SDS011;491;53.480;10.174;2022-12-08T16:52:05;4.33;;;2.90;;
1004;SDS011;491;53.480;10.174;2022-12-08T16:54:31;5.40;;;4.23;;
1004;SDS011;491;53.480;10.174;2022-12-08T16:56:56;3.30;;;2.83;;
1004;SDS011;491;53.480;10.174;2022-12-08T16:59:22;7.57;;;5.10;;
1004;SDS011;491;53.480;10.174;2022-12-08T17:01:47;7.77;;;5.00;;
1004;SDS011;491;53.480;10.174;2022-12-08T17:04:13;9.10;;;5.17;;
1004;SDS011;491;53.480;10.174;2022-12-08T17:06:38;7.77;;;3.67;;
1004;SDS011;491;53.480;10.174;2022-12-08T17:09:04;6.33;;;5.53;;
1004;SDS011;491;53.480;10.174;2022-12-08T17:11:30;7.73;;;4.47;;
1004;SDS011;491;53.480;10.174;2022-12-08T17:13:56;7.53;;;5.47;;
1004;SDS011;491;53.480;10.174;2022-12-08T17:16:23;12.60;;;6.57;;
1004;SDS011;491;53.480;10.174;2022-12-08T17:18:49;8.27;;;5.60;;
1004;SDS011;491;53.480;10.174;2022-12-08T17:21:15;8.37;;;6.30;;
1004;SDS011;491;53.480;10.174;2022-12-08T17:23:41;8.97;;;6.87;;
1004;SDS011;491;53.480;10.174;2022-12-08T17:26:07;9.30;;;6.70;;
1004;SDS011;491;53.480;10.174;2022-12-08T17:28:33;13.03;;;8.83;;
1004;SDS011;491;53.480;10.174;2022-12-08T17:30:59;13.67;;;8.97;;
1004;SDS011;491;53.480;10.174;2022-12-08T17:33:25;14.03;;;7.97;;
1004;SDS011;491;53.480;10.174;2022-12-08T17:35:51;12.97;;;7.50;;
1004;SDS011;491;53.480;10.174;2022-12-08T17:38:18;14.47;;;9.37;;